createdAt,value
2018-07-31T00:00:09.126Z,24.05
2018-07-31T00:01:09.110Z,24.02
2018-07-31T00:02:09.114Z,24.01
2018-07-31T00:03:09.116Z,23.86
2018-07-31T00:04:09.120Z,23.87
2018-07-31T00:05:09.125Z,23.87
2018-07-31T00:06:09.132Z,23.83
2018-07-31T00:07:09.132Z,23.76
2018-07-31T00:08:09.138Z,23.83
2018-07-31T00:09:09.138Z,23.76
2018-07-31T00:10:09.145Z,23.78
2018-07-31T00:11:09.148Z,23.74
2018-07-31T00:12:09.152Z,23.74
2018-07-31T00:13:09.154Z,23.73
2018-07-31T00:14:09.161Z,23.77
2018-07-31T00:15:09.163Z,23.80
2018-07-31T00:16:09.167Z,23.73
2018-07-31T00:17:09.190Z,23.76
2018-07-31T00:18:09.174Z,23.78
2018-07-31T00:19:09.173Z,23.65
2018-07-31T00:20:09.188Z,23.65
2018-07-31T00:21:09.186Z,23.71
2018-07-31T00:22:09.189Z,23.63
2018-07-31T00:23:09.190Z,23.71
2018-07-31T00:24:09.210Z,23.58
2018-07-31T00:25:09.199Z,23.62
2018-07-31T00:26:09.204Z,23.59
2018-07-31T00:27:09.207Z,23.56
2018-07-31T00:28:09.217Z,23.54
2018-07-31T00:29:09.216Z,23.50
2018-07-31T00:30:09.219Z,23.50
2018-07-31T00:31:09.223Z,23.46
2018-07-31T00:32:09.225Z,23.44
2018-07-31T00:33:09.230Z,23.51
2018-07-31T00:34:09.250Z,23.51
2018-07-31T00:35:09.236Z,23.44
2018-07-31T00:36:09.240Z,23.43
2018-07-31T00:37:09.246Z,23.43
2018-07-31T00:38:09.256Z,23.47
2018-07-31T00:39:09.259Z,23.50
2018-07-31T00:40:09.257Z,23.46
2018-07-31T00:41:09.262Z,23.37
2018-07-31T00:42:09.258Z,23.37
2018-07-31T00:43:09.264Z,23.34
2018-07-31T00:44:09.274Z,23.39
2018-07-31T00:45:09.276Z,23.32
2018-07-31T00:46:09.278Z,23.32
2018-07-31T00:47:09.279Z,23.32
2018-07-31T00:48:09.284Z,23.28
2018-07-31T00:49:09.289Z,23.32
2018-07-31T00:50:09.290Z,23.28
2018-07-31T00:51:09.300Z,23.28
2018-07-31T00:52:09.302Z,23.25
2018-07-31T00:53:09.305Z,23.23
2018-07-31T00:54:09.311Z,23.24
2018-07-31T00:55:09.320Z,23.18
2018-07-31T00:56:09.313Z,23.20
2018-07-31T00:57:09.319Z,23.12
2018-07-31T00:58:09.320Z,23.02
2018-07-31T00:59:09.332Z,23.06
2018-07-31T01:00:09.327Z,23.03
2018-07-31T01:01:09.331Z,22.99
2018-07-31T01:02:09.334Z,23.03
2018-07-31T01:03:09.336Z,23.00
2018-07-31T01:04:09.340Z,22.96
2018-07-31T01:05:09.343Z,22.99
2018-07-31T01:06:09.348Z,22.98
2018-07-31T01:07:09.348Z,23.02
2018-07-31T01:08:09.353Z,23.03
2018-07-31T01:09:09.363Z,22.98
2018-07-31T01:10:09.362Z,22.93
2018-07-31T01:11:09.365Z,22.94
2018-07-31T01:12:09.363Z,23.00
2018-07-31T01:13:09.369Z,22.94
2018-07-31T01:14:09.374Z,22.93
2018-07-31T01:15:09.379Z,22.93
2018-07-31T01:16:09.386Z,22.91
2018-07-31T01:17:09.386Z,22.90
2018-07-31T01:18:09.390Z,22.88
2018-07-31T01:19:09.392Z,22.90
2018-07-31T01:20:09.396Z,22.87
2018-07-31T01:21:09.399Z,22.80
2018-07-31T01:22:09.404Z,22.85
2018-07-31T01:23:09.406Z,22.87
2018-07-31T01:24:09.415Z,22.84
2018-07-31T01:25:09.416Z,22.83
2018-07-31T01:26:09.420Z,22.91
2018-07-31T01:27:09.420Z,22.88
2018-07-31T01:28:09.424Z,22.83
2018-07-31T01:29:09.424Z,22.88
2018-07-31T01:30:09.430Z,22.85
2018-07-31T01:31:09.432Z,22.91
2018-07-31T01:32:09.437Z,22.84
2018-07-31T01:33:09.439Z,22.88
2018-07-31T01:34:09.445Z,22.81
2018-07-31T01:35:09.446Z,22.88
2018-07-31T01:36:09.453Z,22.83
2018-07-31T01:37:09.452Z,22.87
2018-07-31T01:38:09.457Z,22.80
2018-07-31T01:39:09.458Z,22.80
2018-07-31T01:40:09.462Z,22.76
2018-07-31T01:41:09.465Z,22.76
2018-07-31T01:42:09.470Z,22.83
2018-07-31T01:43:09.473Z,22.73
2018-07-31T01:44:09.476Z,22.78
2018-07-31T01:45:09.479Z,22.80
2018-07-31T01:46:09.483Z,22.78
2018-07-31T01:47:09.492Z,22.70
2018-07-31T01:48:09.490Z,22.73
2018-07-31T01:49:09.492Z,22.72
2018-07-31T01:50:09.507Z,22.59
2018-07-31T01:51:09.500Z,22.72
2018-07-31T01:52:09.498Z,22.69
2018-07-31T01:53:09.507Z,22.75
2018-07-31T01:54:09.518Z,22.73
2018-07-31T01:55:09.511Z,22.83
2018-07-31T01:56:09.516Z,22.84
2018-07-31T01:57:09.525Z,22.63
2018-07-31T01:58:09.518Z,22.73
2018-07-31T01:59:09.525Z,22.59
2018-07-31T02:00:09.531Z,22.63
2018-07-31T02:01:09.538Z,22.66
2018-07-31T02:02:09.588Z,22.65
2018-07-31T02:03:09.537Z,22.63
2018-07-31T02:04:09.542Z,22.65
2018-07-31T02:05:09.543Z,22.60
2018-07-31T02:06:09.554Z,22.59
2018-07-31T02:07:09.553Z,22.63
2018-07-31T02:08:09.555Z,22.55
2018-07-31T02:09:09.562Z,22.53
2018-07-31T02:10:09.558Z,22.44
2018-07-31T02:11:09.563Z,22.39
2018-07-31T02:12:09.565Z,22.39
2018-07-31T02:13:09.568Z,22.18
2018-07-31T02:14:09.572Z,22.25
2018-07-31T02:15:09.569Z,22.28
2018-07-31T02:16:09.580Z,22.25
2018-07-31T02:17:09.579Z,22.18
2018-07-31T02:18:09.586Z,22.20
2018-07-31T02:19:09.582Z,22.11
2018-07-31T02:20:09.591Z,22.18
2018-07-31T02:21:09.594Z,22.15
2018-07-31T02:22:09.624Z,22.02
2018-07-31T02:23:09.606Z,22.07
2018-07-31T02:24:09.603Z,22.04
2018-07-31T02:25:09.608Z,21.92
2018-07-31T02:26:09.613Z,21.89
2018-07-31T02:27:09.625Z,21.85
2018-07-31T02:28:09.721Z,21.88
2018-07-31T02:29:09.628Z,21.77
2018-07-31T02:30:09.624Z,21.80
2018-07-31T02:31:09.626Z,21.69
2018-07-31T02:32:09.643Z,21.60
2018-07-31T02:33:09.632Z,21.66
2018-07-31T02:34:09.639Z,21.69
2018-07-31T02:35:09.638Z,21.62
2018-07-31T02:36:09.645Z,21.69
2018-07-31T02:37:09.656Z,21.70
2018-07-31T02:38:09.649Z,21.57
2018-07-31T02:39:09.658Z,21.52
2018-07-31T02:40:09.652Z,21.54
2018-07-31T02:41:09.655Z,21.50
2018-07-31T02:42:09.675Z,21.43
2018-07-31T02:43:09.667Z,21.43
2018-07-31T02:44:09.667Z,21.33
2018-07-31T02:45:09.697Z,21.30
2018-07-31T02:46:09.672Z,21.30
2018-07-31T02:47:09.707Z,21.30
2018-07-31T02:48:09.679Z,21.32
2018-07-31T02:49:09.686Z,21.29
2018-07-31T02:50:09.686Z,21.20
2018-07-31T02:51:09.686Z,21.15
2018-07-31T02:52:09.690Z,21.18
2018-07-31T02:53:09.696Z,21.12
2018-07-31T02:54:09.697Z,21.11
2018-07-31T02:55:09.702Z,21.02
2018-07-31T02:56:09.709Z,21.03
2018-07-31T02:57:09.706Z,21.03
2018-07-31T02:58:09.786Z,21.05
2018-07-31T02:59:09.715Z,21.05
2018-07-31T03:00:09.715Z,21.03
2018-07-31T03:01:09.721Z,21.03
2018-07-31T03:02:09.720Z,21.00
2018-07-31T03:03:09.722Z,20.97
2018-07-31T03:04:09.728Z,20.92
2018-07-31T03:05:09.755Z,20.93
2018-07-31T03:06:09.733Z,20.88
2018-07-31T03:07:09.736Z,20.88
2018-07-31T03:08:09.749Z,20.97
2018-07-31T03:09:09.740Z,20.96
2018-07-31T03:10:09.747Z,21.03
2018-07-31T03:11:09.746Z,21.03
2018-07-31T03:12:09.753Z,20.99
2018-07-31T03:13:09.751Z,21.02
2018-07-31T03:14:09.756Z,20.96
2018-07-31T03:15:09.764Z,21.03
2018-07-31T03:16:09.762Z,21.00
2018-07-31T03:17:09.763Z,21.00
2018-07-31T03:18:09.768Z,21.02
2018-07-31T03:19:09.769Z,20.95
2018-07-31T03:20:09.774Z,20.97
2018-07-31T03:21:09.775Z,20.99
2018-07-31T03:22:09.781Z,21.00
2018-07-31T03:23:09.784Z,21.00
2018-07-31T03:24:09.791Z,21.21
2018-07-31T03:25:09.787Z,21.15
2018-07-31T03:26:09.790Z,21.15
2018-07-31T03:27:09.791Z,21.22
2018-07-31T03:28:09.858Z,21.15
2018-07-31T03:29:09.799Z,21.11
2018-07-31T03:30:09.805Z,21.15
2018-07-31T03:31:09.811Z,21.09
2018-07-31T03:32:09.825Z,21.17
2018-07-31T03:33:09.806Z,21.18
2018-07-31T03:34:09.810Z,21.15
2018-07-31T03:35:09.812Z,21.14
2018-07-31T03:36:09.817Z,21.15
2018-07-31T03:37:09.829Z,21.22
2018-07-31T03:38:09.823Z,21.15
2018-07-31T03:39:09.824Z,21.17
2018-07-31T03:40:09.827Z,21.18
2018-07-31T03:41:09.830Z,21.14
2018-07-31T03:42:09.833Z,21.11
2018-07-31T03:43:09.835Z,21.20
2018-07-31T03:44:09.839Z,21.06
2018-07-31T03:45:09.857Z,21.09
2018-07-31T03:46:09.846Z,21.09
2018-07-31T03:47:09.844Z,20.99
2018-07-31T03:48:09.851Z,21.03
2018-07-31T03:49:09.856Z,21.03
2018-07-31T03:50:09.900Z,21.06
2018-07-31T03:51:09.857Z,21.00
2018-07-31T03:52:09.868Z,21.15
2018-07-31T03:53:09.861Z,21.25
2018-07-31T03:54:09.865Z,21.24
2018-07-31T03:55:09.868Z,21.30
2018-07-31T03:56:09.873Z,21.37
2018-07-31T03:57:09.880Z,21.25
2018-07-31T03:58:09.876Z,21.36
2018-07-31T03:59:09.881Z,21.37
2018-07-31T04:00:09.912Z,21.43
2018-07-31T04:01:09.889Z,21.40
2018-07-31T04:02:09.889Z,21.43
2018-07-31T04:03:09.892Z,21.35
2018-07-31T04:04:09.891Z,21.35
2018-07-31T04:05:09.896Z,21.40
2018-07-31T04:06:09.901Z,21.48
2018-07-31T04:07:09.906Z,21.55
2018-07-31T04:08:09.906Z,21.57
2018-07-31T04:09:09.913Z,21.50
2018-07-31T04:10:09.915Z,21.55
2018-07-31T04:11:09.913Z,21.69
2018-07-31T04:12:09.919Z,21.70
2018-07-31T04:13:09.923Z,21.73
2018-07-31T04:14:09.926Z,21.75
2018-07-31T04:15:09.929Z,21.89
2018-07-31T04:16:09.937Z,21.93
2018-07-31T04:17:09.996Z,21.85
2018-07-31T04:18:09.939Z,21.99
2018-07-31T04:19:09.939Z,22.04
2018-07-31T04:20:09.939Z,21.96
2018-07-31T04:21:09.946Z,21.93
2018-07-31T04:22:09.948Z,22.02
2018-07-31T04:23:09.954Z,22.13
2018-07-31T04:24:09.954Z,22.18
2018-07-31T04:25:09.956Z,22.15
2018-07-31T04:26:09.961Z,22.14
2018-07-31T04:27:09.980Z,22.28
2018-07-31T04:28:09.967Z,22.25
2018-07-31T04:29:09.969Z,22.36
2018-07-31T04:30:10.047Z,22.33
2018-07-31T04:31:09.977Z,22.39
2018-07-31T04:32:09.985Z,22.48
2018-07-31T04:33:09.983Z,22.47
2018-07-31T04:34:09.986Z,22.55
2018-07-31T04:35:09.984Z,22.70
2018-07-31T04:36:10.008Z,22.73
2018-07-31T04:37:09.994Z,22.94
2018-07-31T04:38:09.996Z,23.36
2018-07-31T04:39:10.000Z,23.71
2018-07-31T04:40:10.004Z,24.17
2018-07-31T04:41:10.025Z,24.53
2018-07-31T04:42:10.055Z,24.74
2018-07-31T04:43:10.014Z,25.21
2018-07-31T04:44:10.017Z,25.08
2018-07-31T04:45:10.021Z,25.07
2018-07-31T04:46:10.025Z,25.08
2018-07-31T04:47:10.032Z,25.41
2018-07-31T04:48:10.034Z,25.21
2018-07-31T04:49:10.038Z,25.17
2018-07-31T04:50:10.047Z,25.36
2018-07-31T04:51:10.045Z,25.21
2018-07-31T04:52:10.047Z,25.48
2018-07-31T04:53:10.049Z,25.62
2018-07-31T04:54:10.054Z,25.62
2018-07-31T04:55:10.057Z,25.72
2018-07-31T04:56:10.065Z,25.93
2018-07-31T04:57:10.086Z,25.58
2018-07-31T04:58:10.065Z,25.69
2018-07-31T04:59:10.076Z,25.77
2018-07-31T05:00:10.075Z,25.87
2018-07-31T05:01:10.081Z,26.13
2018-07-31T05:02:10.084Z,26.34
2018-07-31T05:03:10.087Z,26.33
2018-07-31T05:04:10.089Z,26.10
2018-07-31T05:05:10.096Z,26.34
2018-07-31T05:06:10.100Z,26.59
2018-07-31T05:07:10.127Z,26.63
2018-07-31T05:08:10.110Z,26.81
2018-07-31T05:09:10.111Z,26.89
2018-07-31T05:10:10.117Z,26.84
2018-07-31T05:11:10.131Z,26.77
2018-07-31T05:12:10.128Z,27.08
2018-07-31T05:13:10.134Z,26.90
2018-07-31T05:14:10.139Z,27.02
2018-07-31T05:15:10.140Z,26.70
2018-07-31T05:16:10.144Z,26.75
2018-07-31T05:17:10.154Z,26.63
2018-07-31T05:18:10.175Z,26.58
2018-07-31T05:19:10.160Z,26.23
2018-07-31T05:20:10.164Z,26.37
2018-07-31T05:21:10.171Z,26.70
2018-07-31T05:22:10.196Z,27.21
2018-07-31T05:23:10.203Z,27.00
2018-07-31T05:24:10.177Z,26.92
2018-07-31T05:25:10.200Z,27.03
2018-07-31T05:26:10.191Z,27.36
2018-07-31T05:27:10.196Z,27.00
2018-07-31T05:28:10.203Z,26.95
2018-07-31T05:29:10.216Z,27.25
2018-07-31T05:30:10.215Z,27.68
2018-07-31T05:31:10.219Z,27.95
2018-07-31T05:32:10.222Z,28.26
2018-07-31T05:33:10.230Z,28.27
2018-07-31T05:34:10.235Z,28.33
2018-07-31T05:35:10.236Z,27.70
2018-07-31T05:36:10.242Z,27.83
2018-07-31T05:37:10.248Z,27.95
2018-07-31T05:38:10.252Z,28.22
2018-07-31T05:39:10.262Z,28.33
2018-07-31T05:40:10.266Z,28.29
2018-07-31T05:41:10.271Z,28.39
2018-07-31T05:42:10.278Z,28.57
2018-07-31T05:43:10.300Z,28.72
2018-07-31T05:44:10.287Z,29.57
2018-07-31T05:45:10.292Z,29.57
2018-07-31T05:46:10.305Z,29.94
2018-07-31T05:47:10.301Z,29.95
2018-07-31T05:48:10.309Z,30.51
2018-07-31T05:49:10.315Z,30.27
2018-07-31T05:50:10.320Z,29.88
2018-07-31T05:51:10.326Z,29.34
2018-07-31T05:52:10.332Z,29.59
2018-07-31T05:53:10.338Z,29.98
2018-07-31T05:54:10.344Z,29.91
2018-07-31T05:55:10.349Z,30.08
2018-07-31T05:56:10.355Z,30.46
2018-07-31T05:57:10.373Z,30.48
2018-07-31T05:58:10.366Z,30.06
2018-07-31T05:59:10.375Z,29.94
2018-07-31T06:00:10.384Z,29.91
2018-07-31T06:01:10.389Z,29.76
2018-07-31T06:02:10.395Z,30.08
2018-07-31T06:03:10.402Z,30.62
2018-07-31T06:04:10.408Z,30.88
2018-07-31T06:05:10.415Z,31.31
2018-07-31T06:06:10.425Z,30.70
2018-07-31T06:07:10.428Z,30.08
2018-07-31T06:08:10.440Z,30.31
2018-07-31T06:09:10.442Z,31.17
2018-07-31T06:10:10.450Z,31.59
2018-07-31T06:11:10.454Z,31.37
2018-07-31T06:12:10.463Z,30.97
2018-07-31T06:13:10.471Z,31.03
2018-07-31T06:14:10.476Z,31.07
2018-07-31T06:15:10.497Z,31.17
2018-07-31T06:16:10.512Z,31.69
2018-07-31T06:17:10.499Z,30.90
2018-07-31T06:18:10.508Z,31.24
2018-07-31T06:19:10.511Z,32.00
2018-07-31T06:20:10.522Z,31.78
2018-07-31T06:21:10.530Z,31.85
2018-07-31T06:22:10.537Z,32.12
2018-07-31T06:23:10.544Z,32.70
2018-07-31T06:24:10.550Z,32.40
2018-07-31T06:25:10.583Z,32.78
2018-07-31T06:26:10.567Z,32.70
2018-07-31T06:27:10.573Z,32.64
2018-07-31T06:28:10.583Z,33.47
2018-07-31T06:29:10.585Z,32.92
2018-07-31T06:30:10.619Z,33.09
2018-07-31T06:31:10.606Z,33.07
2018-07-31T06:32:10.614Z,33.62
2018-07-31T06:33:10.625Z,33.86
2018-07-31T06:34:10.636Z,33.28
2018-07-31T06:35:10.642Z,33.46
2018-07-31T06:36:10.651Z,33.53
2018-07-31T06:37:10.657Z,33.01
2018-07-31T06:38:10.666Z,33.43
2018-07-31T06:39:10.674Z,33.47
2018-07-31T06:40:10.683Z,32.73
2018-07-31T06:41:10.692Z,32.43
2018-07-31T06:42:10.704Z,32.58
2018-07-31T06:43:10.710Z,32.65
2018-07-31T06:44:10.720Z,32.93
2018-07-31T06:45:10.732Z,33.58
2018-07-31T06:46:10.739Z,33.84
2018-07-31T06:47:10.745Z,33.45
2018-07-31T06:48:10.753Z,33.52
2018-07-31T06:49:10.785Z,32.59
2018-07-31T06:50:10.776Z,31.99
2018-07-31T06:51:10.784Z,31.92
2018-07-31T06:52:10.795Z,31.47
2018-07-31T06:53:10.826Z,31.51
2018-07-31T06:54:10.811Z,32.36
2018-07-31T06:55:10.821Z,32.92
2018-07-31T06:56:10.829Z,34.02
2018-07-31T06:57:10.838Z,34.86
2018-07-31T06:58:10.846Z,35.55
2018-07-31T06:59:10.857Z,35.78
2018-07-31T07:00:10.865Z,35.67
2018-07-31T07:01:10.881Z,36.05
2018-07-31T07:02:10.941Z,36.68
2018-07-31T07:03:10.896Z,36.95
2018-07-31T07:04:10.909Z,36.92
2018-07-31T07:05:10.953Z,37.23
2018-07-31T07:06:10.929Z,36.68
2018-07-31T07:07:10.937Z,35.39
2018-07-31T07:08:10.953Z,35.15
2018-07-31T07:09:11.037Z,35.14
2018-07-31T07:10:10.973Z,35.76
2018-07-31T07:11:10.993Z,36.17
2018-07-31T07:12:10.989Z,36.72
2018-07-31T07:13:11.002Z,36.39
2018-07-31T07:14:11.010Z,36.62
2018-07-31T07:15:11.025Z,37.14
2018-07-31T07:16:11.037Z,36.42
2018-07-31T07:17:11.041Z,36.67
2018-07-31T07:18:11.054Z,35.93
2018-07-31T07:19:11.068Z,35.82
2018-07-31T07:20:11.075Z,35.27
2018-07-31T07:21:11.084Z,35.86
2018-07-31T07:22:11.097Z,36.39
2018-07-31T07:23:11.108Z,36.59
2018-07-31T07:24:11.117Z,36.68
2018-07-31T07:25:11.127Z,36.72
2018-07-31T07:26:11.145Z,36.88
2018-07-31T07:27:11.152Z,36.52
2018-07-31T07:28:11.164Z,37.02
2018-07-31T07:29:11.176Z,37.70
2018-07-31T07:30:11.190Z,37.67
2018-07-31T07:31:11.211Z,37.68
2018-07-31T07:32:11.209Z,37.99
2018-07-31T07:33:11.220Z,38.11
2018-07-31T07:34:11.236Z,38.26
2018-07-31T07:35:11.246Z,38.38
2018-07-31T07:36:11.255Z,39.03
2018-07-31T07:37:11.267Z,39.19
2018-07-31T07:38:11.280Z,38.58
2018-07-31T07:39:11.295Z,38.71
2018-07-31T07:40:11.341Z,37.55
2018-07-31T07:41:11.314Z,37.87
2018-07-31T07:42:11.329Z,38.43
2018-07-31T07:43:11.338Z,39.04
2018-07-31T07:44:11.352Z,39.24
2018-07-31T07:45:11.364Z,38.86
2018-07-31T07:46:11.379Z,39.07
2018-07-31T07:47:11.387Z,39.04
2018-07-31T07:48:11.403Z,38.95
2018-07-31T07:49:11.410Z,39.21
2018-07-31T07:50:11.430Z,38.60
2018-07-31T07:51:11.440Z,38.82
2018-07-31T07:52:11.448Z,39.07
2018-07-31T07:53:11.460Z,38.68
2018-07-31T07:54:11.629Z,39.24
2018-07-31T07:55:11.488Z,39.43
2018-07-31T07:56:11.501Z,39.74
2018-07-31T07:57:11.512Z,40.40
2018-07-31T07:58:11.530Z,40.12
2018-07-31T07:59:11.538Z,39.83
2018-07-31T08:00:11.555Z,40.02
2018-07-31T08:01:11.560Z,39.93
2018-07-31T08:02:11.575Z,39.21
2018-07-31T08:03:11.585Z,39.03
2018-07-31T08:04:11.663Z,39.25
2018-07-31T08:05:11.616Z,39.78
2018-07-31T08:06:11.629Z,39.86
2018-07-31T08:07:11.643Z,40.14
2018-07-31T08:08:11.654Z,39.94
2018-07-31T08:09:11.673Z,40.40
2018-07-31T08:10:11.681Z,40.61
2018-07-31T08:11:11.696Z,40.75
2018-07-31T08:12:11.708Z,39.93
2018-07-31T08:13:11.728Z,39.89
2018-07-31T08:14:11.734Z,39.62
2018-07-31T08:15:11.780Z,39.37
2018-07-31T08:16:11.764Z,40.00
2018-07-31T08:17:11.775Z,40.27
2018-07-31T08:18:11.832Z,40.20
2018-07-31T08:19:11.799Z,40.30
2018-07-31T08:20:11.815Z,40.40
2018-07-31T08:21:11.824Z,40.44
2018-07-31T08:22:11.843Z,40.50
2018-07-31T08:23:11.858Z,40.16
2018-07-31T08:24:11.875Z,39.93
2018-07-31T08:25:11.886Z,39.89
2018-07-31T08:26:11.899Z,40.49
2018-07-31T08:27:11.914Z,38.69
2018-07-31T08:28:11.936Z,37.89
2018-07-31T08:29:11.942Z,37.48
2018-07-31T08:30:11.970Z,37.58
2018-07-31T08:31:11.969Z,38.26
2018-07-31T08:32:12.002Z,38.77
2018-07-31T08:33:11.998Z,37.70
2018-07-31T08:34:12.012Z,37.39
2018-07-31T08:35:12.058Z,36.80
2018-07-31T08:36:12.045Z,36.46
2018-07-31T08:37:12.062Z,36.17
2018-07-31T08:38:12.072Z,37.20
2018-07-31T08:39:12.096Z,37.86
2018-07-31T08:40:12.110Z,38.92
2018-07-31T08:41:12.118Z,39.58
2018-07-31T08:42:12.167Z,38.68
2018-07-31T08:43:12.140Z,37.65
2018-07-31T08:44:12.164Z,37.63
2018-07-31T08:45:12.170Z,38.05
2018-07-31T08:46:12.186Z,37.99
2018-07-31T08:47:12.199Z,37.13
2018-07-31T08:48:12.218Z,36.52
2018-07-31T08:49:12.229Z,36.96
2018-07-31T08:50:12.244Z,37.72
2018-07-31T08:51:12.287Z,37.70
2018-07-31T08:52:12.272Z,38.06
2018-07-31T08:53:12.284Z,38.74
2018-07-31T08:54:12.311Z,38.33
2018-07-31T08:55:12.311Z,38.06
2018-07-31T08:56:12.326Z,37.83
2018-07-31T08:57:12.342Z,37.67
2018-07-31T08:58:12.354Z,37.84
2018-07-31T08:59:12.369Z,37.70
2018-07-31T09:00:12.384Z,38.55
2018-07-31T09:01:12.398Z,39.17
2018-07-31T09:02:12.409Z,38.61
2018-07-31T09:03:12.426Z,38.89
2018-07-31T09:04:12.438Z,39.41
2018-07-31T09:05:12.452Z,40.23
2018-07-31T09:06:12.472Z,39.85
2018-07-31T09:07:12.480Z,39.55
2018-07-31T09:08:12.572Z,39.25
2018-07-31T09:09:12.505Z,37.32
2018-07-31T09:10:12.536Z,36.96
2018-07-31T09:11:12.529Z,36.45
2018-07-31T09:12:12.544Z,35.27
2018-07-31T09:13:12.562Z,34.54
2018-07-31T09:14:12.573Z,34.57
2018-07-31T09:15:12.580Z,33.87
2018-07-31T09:16:12.593Z,33.79
2018-07-31T09:17:12.609Z,33.89
2018-07-31T09:18:12.617Z,33.57
2018-07-31T09:19:12.629Z,33.46
2018-07-31T09:20:12.639Z,33.34
2018-07-31T09:21:12.650Z,33.50
2018-07-31T09:22:12.668Z,33.45
2018-07-31T09:23:12.670Z,33.46
2018-07-31T09:24:12.682Z,33.46
2018-07-31T09:25:12.697Z,33.47
2018-07-31T09:26:12.700Z,33.40
2018-07-31T09:27:12.741Z,33.30
2018-07-31T09:28:12.722Z,33.27
2018-07-31T09:29:12.737Z,33.28
2018-07-31T09:30:12.748Z,33.32
2018-07-31T09:31:12.753Z,33.31
2018-07-31T09:32:12.763Z,33.23
2018-07-31T09:33:12.771Z,33.00
2018-07-31T09:34:12.782Z,33.14
2018-07-31T09:35:12.792Z,33.20
2018-07-31T09:36:12.803Z,33.23
2018-07-31T09:37:12.812Z,33.12
2018-07-31T09:38:12.838Z,33.17
2018-07-31T09:39:12.829Z,32.97
2018-07-31T09:40:12.840Z,32.92
2018-07-31T09:41:12.848Z,33.04
2018-07-31T09:42:12.853Z,33.02
2018-07-31T09:43:12.873Z,33.02
2018-07-31T09:44:12.881Z,33.11
2018-07-31T09:45:12.885Z,33.22
2018-07-31T09:46:12.897Z,33.12
2018-07-31T09:47:12.902Z,33.04
2018-07-31T09:48:12.913Z,33.08
2018-07-31T09:49:12.921Z,33.07
2018-07-31T09:50:12.929Z,33.12
2018-07-31T09:51:12.938Z,33.00
2018-07-31T09:52:12.950Z,33.02
2018-07-31T09:53:12.955Z,32.92
2018-07-31T09:54:12.967Z,33.04
2018-07-31T09:55:12.980Z,33.00
2018-07-31T09:56:12.987Z,33.11
2018-07-31T09:57:13.011Z,33.14
2018-07-31T09:58:13.008Z,33.27
2018-07-31T09:59:13.073Z,33.31
2018-07-31T10:00:13.022Z,33.24
2018-07-31T10:01:13.025Z,33.28
2018-07-31T10:02:13.039Z,33.37
2018-07-31T10:03:13.050Z,33.34
2018-07-31T10:04:13.057Z,33.28
2018-07-31T10:05:13.074Z,33.30
2018-07-31T10:06:13.085Z,33.28
2018-07-31T10:07:13.080Z,33.31
2018-07-31T10:08:13.098Z,33.27
2018-07-31T10:09:13.098Z,33.17
2018-07-31T10:10:13.109Z,32.93
2018-07-31T10:11:13.123Z,33.05
2018-07-31T10:12:13.202Z,33.22
2018-07-31T10:13:13.140Z,33.19
2018-07-31T10:14:13.143Z,33.23
2018-07-31T10:15:13.147Z,33.28
2018-07-31T10:16:13.159Z,33.42
2018-07-31T10:17:13.166Z,33.46
2018-07-31T10:18:13.249Z,33.42
2018-07-31T10:19:13.251Z,33.55
2018-07-31T10:20:13.252Z,33.53
2018-07-31T10:21:13.203Z,33.57
2018-07-31T10:22:13.226Z,33.55
2018-07-31T10:23:13.216Z,33.59
2018-07-31T10:24:13.279Z,33.61
2018-07-31T10:25:13.235Z,33.68
2018-07-31T10:26:13.374Z,33.59
2018-07-31T10:27:13.254Z,33.59
2018-07-31T10:28:13.260Z,33.67
2018-07-31T10:29:13.272Z,33.65
2018-07-31T10:30:13.277Z,33.57
2018-07-31T10:31:13.287Z,33.73
2018-07-31T10:32:13.334Z,33.81
2018-07-31T10:33:13.303Z,33.79
2018-07-31T10:34:13.313Z,33.81
2018-07-31T10:35:13.320Z,33.61
2018-07-31T10:36:13.329Z,33.52
2018-07-31T10:37:13.337Z,33.68
2018-07-31T10:38:13.422Z,33.69
2018-07-31T10:39:13.352Z,33.69
2018-07-31T10:40:13.365Z,33.84
2018-07-31T10:41:13.373Z,33.86
2018-07-31T10:42:13.381Z,33.92
2018-07-31T10:43:13.389Z,33.84
2018-07-31T10:44:13.399Z,33.73
2018-07-31T10:45:13.407Z,33.98
2018-07-31T10:46:13.416Z,33.86
2018-07-31T10:47:13.428Z,33.99
2018-07-31T10:48:13.433Z,34.13
2018-07-31T10:49:13.448Z,33.99
2018-07-31T10:50:13.530Z,33.94
2018-07-31T10:51:13.547Z,33.87
2018-07-31T10:52:13.467Z,33.57
2018-07-31T10:53:13.477Z,33.76
2018-07-31T10:54:13.486Z,33.69
2018-07-31T10:55:13.494Z,33.73
2018-07-31T10:56:13.502Z,33.86
2018-07-31T10:57:13.512Z,33.99
2018-07-31T10:58:13.550Z,34.03
2018-07-31T10:59:13.526Z,33.98
2018-07-31T11:00:13.577Z,34.02
2018-07-31T11:01:13.595Z,34.02
2018-07-31T11:02:13.556Z,33.98
2018-07-31T11:03:13.600Z,34.13
2018-07-31T11:04:13.677Z,34.17
2018-07-31T11:05:13.772Z,34.11
2018-07-31T11:06:13.658Z,34.08
2018-07-31T11:07:13.600Z,34.21
2018-07-31T11:08:13.606Z,34.23
2018-07-31T11:09:13.670Z,34.21
2018-07-31T11:10:13.625Z,34.20
2018-07-31T11:11:13.633Z,34.32
2018-07-31T11:12:13.644Z,34.35
2018-07-31T11:13:13.738Z,34.38
2018-07-31T11:14:13.668Z,34.35
2018-07-31T11:15:13.666Z,34.20
2018-07-31T11:16:13.675Z,34.14
2018-07-31T11:17:13.690Z,33.86
2018-07-31T11:18:13.693Z,34.02
2018-07-31T11:19:13.884Z,34.14
2018-07-31T11:20:13.711Z,33.94
2018-07-31T11:21:13.724Z,33.81
2018-07-31T11:22:13.728Z,33.96
2018-07-31T11:23:13.737Z,33.71
2018-07-31T11:24:13.745Z,33.67
2018-07-31T11:25:13.753Z,33.59
2018-07-31T11:26:13.767Z,33.71
2018-07-31T11:27:13.769Z,33.67
2018-07-31T11:28:13.780Z,33.43
2018-07-31T11:29:13.794Z,33.42
2018-07-31T11:30:13.978Z,33.53
2018-07-31T11:31:13.807Z,33.81
2018-07-31T11:32:13.856Z,33.89
2018-07-31T11:33:13.825Z,33.90
2018-07-31T11:34:13.829Z,34.14
2018-07-31T11:35:13.859Z,34.25
2018-07-31T11:36:13.850Z,34.25
2018-07-31T11:37:13.856Z,34.18
2018-07-31T11:38:13.892Z,34.11
2018-07-31T11:39:13.875Z,34.05
2018-07-31T11:40:13.882Z,34.01
2018-07-31T11:41:13.888Z,34.06
2018-07-31T11:42:13.901Z,34.01
2018-07-31T11:43:13.906Z,34.20
2018-07-31T11:44:13.916Z,34.27
2018-07-31T11:45:13.925Z,34.24
2018-07-31T11:46:13.934Z,34.23
2018-07-31T11:47:14.000Z,34.20
2018-07-31T11:48:13.953Z,34.25
2018-07-31T11:49:14.000Z,34.32
2018-07-31T11:50:13.994Z,34.42
2018-07-31T11:51:14.003Z,34.52
2018-07-31T11:52:13.985Z,34.32
2018-07-31T11:53:13.997Z,34.20
2018-07-31T11:54:14.003Z,34.23
2018-07-31T11:55:14.010Z,34.27
2018-07-31T11:56:14.018Z,34.29
2018-07-31T11:57:14.028Z,34.33
2018-07-31T11:58:14.035Z,34.35
2018-07-31T11:59:14.047Z,34.35
2018-07-31T12:00:14.050Z,34.61
2018-07-31T12:01:14.063Z,34.71
2018-07-31T12:02:14.077Z,34.73
2018-07-31T12:03:14.080Z,34.96
2018-07-31T12:04:14.111Z,34.80
2018-07-31T12:05:14.099Z,34.48
2018-07-31T12:06:14.106Z,34.43
2018-07-31T12:07:14.116Z,34.42
2018-07-31T12:08:14.122Z,34.32
2018-07-31T12:09:14.140Z,34.18
2018-07-31T12:10:14.156Z,34.30
2018-07-31T12:11:14.147Z,34.48
2018-07-31T12:12:14.182Z,34.52
2018-07-31T12:13:14.176Z,34.74
2018-07-31T12:14:14.179Z,34.86
2018-07-31T12:15:14.185Z,34.83
2018-07-31T12:16:14.193Z,34.57
2018-07-31T12:17:14.204Z,34.45
2018-07-31T12:18:14.215Z,34.48
2018-07-31T12:19:14.220Z,34.73
2018-07-31T12:20:14.228Z,34.66
2018-07-31T12:21:14.237Z,34.62
2018-07-31T12:22:14.247Z,34.55
2018-07-31T12:23:14.255Z,34.61
2018-07-31T12:24:14.265Z,34.43
2018-07-31T12:25:14.272Z,34.40
2018-07-31T12:26:14.283Z,34.30
2018-07-31T12:27:14.294Z,34.36
2018-07-31T12:28:14.307Z,34.54
2018-07-31T12:29:14.329Z,34.43
2018-07-31T12:30:14.320Z,34.25
2018-07-31T12:31:14.328Z,34.32
2018-07-31T12:32:14.344Z,34.27
2018-07-31T12:33:14.515Z,34.35
2018-07-31T12:34:14.357Z,34.50
2018-07-31T12:35:14.363Z,34.57
2018-07-31T12:36:14.373Z,34.30
2018-07-31T12:37:14.383Z,34.38
2018-07-31T12:38:14.429Z,34.54
2018-07-31T12:39:14.397Z,34.57
2018-07-31T12:40:14.407Z,34.51
2018-07-31T12:41:14.422Z,34.62
2018-07-31T12:42:14.428Z,34.48
2018-07-31T12:43:14.433Z,34.52
2018-07-31T12:44:14.447Z,34.78
2018-07-31T12:45:14.461Z,34.93
2018-07-31T12:46:14.465Z,35.02
2018-07-31T12:47:14.479Z,35.22
2018-07-31T12:48:14.478Z,35.12
2018-07-31T12:49:14.486Z,34.61
2018-07-31T12:50:14.521Z,34.51
2018-07-31T12:51:14.508Z,34.43
2018-07-31T12:52:14.512Z,34.60